Rockwood, ME

12:56 AM EST on December 06, 2016 (GMT -0500)
Gray Ghost Camps | | Change Station

Elev 1027 ft 45.67 °N, 69.79 °W | Updated 1 second ago

Mostly Cloudy
Mostly Cloudy
25.3 °F
Feels Like 25 °F
N
0.4
Wind Variable Wind from WSW
Gusts 2.5 mph

Today
High -- | Low -- °F
--% Chance of Precip.
Yesterday
High -- | Low -- °F
Precip. -- in
Pressure 29.99 in
Visibility 3.0 miles
Clouds Mostly Cloudy 2300 ft
Mostly Cloudy 3500 ft
Windchill 25 °F
Dew Point 18 °F
Humidity 73%
Rainfall 0.00 in
Snow Depth Not available.
7:05 AM 3:55 PM
Waxing Crescent, 38% visible
METAR KMLT 060553Z AUTO 00000KT 3SM BR BKN023 BKN035 M07/M08 A2995 RMK AO2 SNE14 SLP154 P0000 60001 T10671083 11050 21072 53006
Pressure 29.99 in
Visibility 3.0 miles
Clouds Mostly Cloudy 2300 ft
Mostly Cloudy 3500 ft
Windchill 25 °F
Dew Point 18 °F
Humidity 73%
Rainfall 0.00 in
Snow Depth Not available.
7:05 AM 3:55 PM
Waxing Crescent, 38% visible
METAR KMLT 060553Z AUTO 00000KT 3SM BR BKN023 BKN035 M07/M08 A2995 RMK AO2 SNE14 SLP154 P0000 60001 T10671083 11050 21072 53006

10-Day Weather Forecast

Almanac

Astronomy

Dec. 06, 2016 Rise Set
Actual Time
Civil Twilight
Nautical Twilight
Astronomical Twilight
Moon
Length of Visible Light
Length of Day
Tomorrow will be .
, % of the Moon is Illuminated

Today's Extremes

State Highs State Lows

Community

WunderPhotos

Upload Photos

1,955,931 photos uploaded!

WunderBlog® & News

Nearby

Air Quality

  Air Quality AQ Index Pollutant
Not available.

Snow Depth

Station Depth Elevation

Earthquake Activity

City Distance Mag. Time & Date
Minimum magnitude displayed is 2.5.

Coastal Water Temperatures

Place Temperature

Stations

Nearby Weather Stations

Station Location Temp. Windchill Dew Point Humidity Wind Precip. Elev Updated Type
                   

Watches & Warnings

There are currently no watches in effect.